createdAt,value
2023-05-06T00:01:28.079Z,11.86
2023-05-06T00:03:55.039Z,11.83
2023-05-06T00:06:22.685Z,11.79
2023-05-06T00:08:49.516Z,11.75
2023-05-06T00:11:16.555Z,11.73
2023-05-06T00:13:43.414Z,11.71
2023-05-06T00:16:10.484Z,11.67
2023-05-06T00:18:37.411Z,11.63
2023-05-06T00:21:04.362Z,11.60
2023-05-06T00:23:31.284Z,11.57
2023-05-06T00:25:58.323Z,11.53
2023-05-06T00:28:25.147Z,11.48
2023-05-06T00:30:51.919Z,11.45
2023-05-06T00:33:19.079Z,11.42
2023-05-06T00:35:46.325Z,11.38
2023-05-06T00:38:15.646Z,11.34
2023-05-06T00:40:42.969Z,11.31
2023-05-06T00:43:10.709Z,11.28
2023-05-06T00:45:38.677Z,11.26
2023-05-06T00:48:07.683Z,11.22
2023-05-06T00:50:35.384Z,11.19
2023-05-06T00:53:04.592Z,11.17
2023-05-06T00:55:32.071Z,11.16
2023-05-06T00:57:59.559Z,11.12
2023-05-06T01:00:26.683Z,11.09
2023-05-06T01:02:53.777Z,11.07
2023-05-06T01:05:23.276Z,11.02
2023-05-06T01:08:18.024Z,10.99
2023-05-06T01:10:57.885Z,10.97
2023-05-06T01:13:30.743Z,10.95
2023-05-06T01:16:00.932Z,10.92
2023-05-06T01:18:32.678Z,10.89
2023-05-06T01:21:00.612Z,10.88
2023-05-06T01:23:27.643Z,10.85
2023-05-06T01:25:54.482Z,10.83
2023-05-06T01:28:21.415Z,10.79
2023-05-06T01:31:09.701Z,10.77
2023-05-06T01:33:51.572Z,11.20
2023-05-06T01:36:54.010Z,12.72
2023-05-06T01:39:25.506Z,14.00
2023-05-06T01:41:57.581Z,14.47
2023-05-06T01:44:28.100Z,13.80
2023-05-06T01:46:56.556Z,12.99
2023-05-06T01:49:26.351Z,12.39
2023-05-06T01:51:54.061Z,11.94
2023-05-06T01:54:21.482Z,11.60
2023-05-06T01:56:48.306Z,11.34
2023-05-06T01:59:15.297Z,11.13
2023-05-06T02:01:42.340Z,10.97
2023-05-06T02:04:09.455Z,10.83
2023-05-06T02:06:36.385Z,10.71
2023-05-06T02:09:03.651Z,10.63
2023-05-06T02:11:30.496Z,10.82
2023-05-06T02:13:58.560Z,12.09
2023-05-06T02:16:29.153Z,13.33
2023-05-06T02:18:56.244Z,13.90
2023-05-06T02:21:24.063Z,13.27
2023-05-06T02:23:51.051Z,12.48
2023-05-06T02:26:18.009Z,11.91
2023-05-06T02:28:45.015Z,11.49
2023-05-06T02:31:16.392Z,11.15
2023-05-06T02:33:45.197Z,10.89
2023-05-06T02:36:12.206Z,10.69
2023-05-06T02:38:39.239Z,10.54
2023-05-06T02:41:06.132Z,10.41
2023-05-06T02:43:33.139Z,10.52
2023-05-06T02:46:00.110Z,11.67
2023-05-06T02:48:27.042Z,12.92
2023-05-06T02:50:54.254Z,13.52
2023-05-06T02:53:21.095Z,12.96
2023-05-06T02:55:47.961Z,12.22
2023-05-06T02:58:14.810Z,11.63
2023-05-06T03:00:41.744Z,11.18
2023-05-06T03:03:10.306Z,10.84
2023-05-06T03:05:37.306Z,10.60
2023-05-06T03:08:04.407Z,10.41
2023-05-06T03:10:31.364Z,10.88
2023-05-06T03:12:58.847Z,12.26
2023-05-06T03:15:26.612Z,13.38
2023-05-06T03:17:53.637Z,13.90
2023-05-06T03:20:22.004Z,13.18
2023-05-06T03:22:49.673Z,12.30
2023-05-06T03:25:16.690Z,11.65
2023-05-06T03:27:43.961Z,11.18
2023-05-06T03:30:11.636Z,10.84
2023-05-06T03:32:39.000Z,10.57
2023-05-06T03:35:08.739Z,10.67
2023-05-06T03:37:35.943Z,11.83
2023-05-06T03:40:04.794Z,12.93
2023-05-06T03:42:32.062Z,13.40
2023-05-06T03:44:58.995Z,12.70
2023-05-06T03:47:26.198Z,11.97
2023-05-06T03:49:53.600Z,11.43
2023-05-06T03:52:20.869Z,10.99
2023-05-06T03:54:48.423Z,10.67
2023-05-06T03:57:15.635Z,10.55
2023-05-06T03:59:42.712Z,11.49
2023-05-06T04:02:09.929Z,12.69
2023-05-06T04:04:36.826Z,13.62
2023-05-06T04:07:04.328Z,13.89
2023-05-06T04:09:33.593Z,13.12
2023-05-06T04:12:00.787Z,12.34
2023-05-06T04:14:27.744Z,11.75
2023-05-06T04:16:54.786Z,11.32
2023-05-06T04:19:22.039Z,11.00
2023-05-06T04:21:49.202Z,10.76
2023-05-06T04:24:19.181Z,10.67
2023-05-06T04:26:46.022Z,11.64
2023-05-06T04:29:12.986Z,12.86
2023-05-06T04:31:40.129Z,13.53
2023-05-06T04:34:07.067Z,13.03
2023-05-06T04:36:34.122Z,12.23
2023-05-06T04:39:01.342Z,11.66
2023-05-06T04:41:31.385Z,11.27
2023-05-06T04:44:05.432Z,11.26
2023-05-06T04:46:38.005Z,12.38
2023-05-06T04:49:14.508Z,13.41
2023-05-06T04:51:41.548Z,13.59
2023-05-06T04:54:09.034Z,12.83
2023-05-06T04:56:36.366Z,12.15
2023-05-06T04:59:03.317Z,11.63
2023-05-06T05:01:30.254Z,11.28
2023-05-06T05:03:57.292Z,11.32
2023-05-06T05:06:24.638Z,12.43
2023-05-06T05:08:51.708Z,13.53
2023-05-06T05:11:18.561Z,13.93
2023-05-06T05:13:45.434Z,13.29
2023-05-06T05:16:12.879Z,12.48
2023-05-06T05:18:39.978Z,11.91
2023-05-06T05:21:06.773Z,11.54
2023-05-06T05:23:33.760Z,11.65
2023-05-06T05:26:01.669Z,12.86
2023-05-06T05:28:29.115Z,13.85
2023-05-06T05:31:01.621Z,13.61
2023-05-06T05:33:28.811Z,13.08
2023-05-06T05:35:56.052Z,12.70
2023-05-06T05:38:23.810Z,12.44
2023-05-06T05:40:50.819Z,12.22
2023-05-06T05:43:17.937Z,12.04
2023-05-06T05:45:44.799Z,11.94
2023-05-06T05:48:11.892Z,12.06
2023-05-06T05:50:38.735Z,13.17
2023-05-06T05:53:06.091Z,14.27
2023-05-06T05:55:33.081Z,14.24
2023-05-06T05:58:00.379Z,13.77
2023-05-06T06:00:27.219Z,13.48
2023-05-06T06:02:54.477Z,13.30
2023-05-06T06:05:22.439Z,13.13
2023-05-06T06:07:50.686Z,13.01
2023-05-06T06:10:38.477Z,12.94
2023-05-06T06:13:19.777Z,12.93
2023-05-06T06:15:47.345Z,12.97
2023-05-06T06:18:15.038Z,13.07
2023-05-06T06:20:41.886Z,13.18
2023-05-06T06:23:09.082Z,13.25
2023-05-06T06:25:36.283Z,13.29
2023-05-06T06:28:03.496Z,13.30
2023-05-06T06:30:31.526Z,13.35
2023-05-06T06:33:01.562Z,13.45
2023-05-06T06:35:28.686Z,13.55
2023-05-06T06:37:55.988Z,13.66
2023-05-06T06:40:23.336Z,13.78
2023-05-06T06:42:50.612Z,13.87
2023-05-06T06:45:17.964Z,13.99
2023-05-06T06:47:44.838Z,14.08
2023-05-06T06:50:12.550Z,14.12
2023-05-06T06:52:39.637Z,14.12
2023-05-06T06:55:07.515Z,14.10
2023-05-06T06:57:34.319Z,14.10
2023-05-06T07:00:01.282Z,14.05
2023-05-06T07:02:28.531Z,13.99
2023-05-06T07:04:55.960Z,13.93
2023-05-06T07:07:23.020Z,13.89
2023-05-06T07:09:50.258Z,13.87
2023-05-06T07:12:25.076Z,13.86
2023-05-06T07:15:00.208Z,13.86
2023-05-06T07:17:27.105Z,13.89
2023-05-06T07:19:54.021Z,13.92
2023-05-06T07:22:20.852Z,13.91
2023-05-06T07:24:47.694Z,13.89
2023-05-06T07:27:14.520Z,13.90
2023-05-06T07:29:41.400Z,13.92
2023-05-06T07:32:08.425Z,13.94
2023-05-06T07:34:36.386Z,13.95
2023-05-06T07:37:04.248Z,13.96
2023-05-06T07:39:31.504Z,13.98
2023-05-06T07:41:58.576Z,14.00
2023-05-06T07:44:25.611Z,14.05
2023-05-06T07:46:52.741Z,14.05
2023-05-06T07:49:20.095Z,14.05
2023-05-06T07:51:47.052Z,14.08
2023-05-06T07:54:13.973Z,14.10
2023-05-06T07:56:41.131Z,14.07
2023-05-06T07:59:08.472Z,14.09
2023-05-06T08:01:35.336Z,14.11
2023-05-06T08:04:02.409Z,14.13
2023-05-06T08:06:29.392Z,14.16
2023-05-06T08:08:56.259Z,14.20
2023-05-06T08:11:23.495Z,14.24
2023-05-06T08:13:50.757Z,14.28
2023-05-06T08:16:17.746Z,14.32
2023-05-06T08:18:44.948Z,14.37
2023-05-06T08:21:12.246Z,14.41
2023-05-06T08:23:39.262Z,14.43
2023-05-06T08:26:06.377Z,14.42
2023-05-06T08:28:33.591Z,14.41
2023-05-06T08:31:00.684Z,14.42
2023-05-06T08:33:28.290Z,14.46
2023-05-06T08:35:58.244Z,14.51
2023-05-06T08:38:26.588Z,14.52
2023-05-06T08:40:55.264Z,14.52
2023-05-06T08:43:24.297Z,14.52
2023-05-06T08:45:51.685Z,14.52
2023-05-06T08:48:18.941Z,14.51
2023-05-06T08:50:49.969Z,14.44
2023-05-06T08:53:17.491Z,14.61
2023-05-06T08:55:46.138Z,15.74
2023-05-06T08:58:17.342Z,16.85
2023-05-06T09:00:46.510Z,17.24
2023-05-06T09:03:14.136Z,16.56
2023-05-06T09:05:41.331Z,15.85
2023-05-06T09:08:08.693Z,15.27
2023-05-06T09:10:47.014Z,14.81
2023-05-06T09:13:15.890Z,14.45
2023-05-06T09:15:48.176Z,14.19
2023-05-06T09:18:16.801Z,14.26
2023-05-06T09:20:48.882Z,15.42
2023-05-06T09:23:17.961Z,16.62
2023-05-06T09:25:47.107Z,17.45
2023-05-06T09:28:14.872Z,18.05
2023-05-06T09:30:43.546Z,18.48
2023-05-06T09:33:12.209Z,18.86
2023-05-06T09:35:44.636Z,19.19
2023-05-06T09:38:11.952Z,19.55
2023-05-06T09:40:39.536Z,19.49
2023-05-06T09:43:06.434Z,18.50
2023-05-06T09:45:34.146Z,17.56
2023-05-06T09:48:01.426Z,16.84
2023-05-06T09:50:28.956Z,16.28
2023-05-06T09:52:56.875Z,15.73
2023-05-06T09:55:27.222Z,15.54
2023-05-06T09:57:55.674Z,16.45
2023-05-06T10:00:28.434Z,17.39
2023-05-06T10:02:57.427Z,17.96
2023-05-06T10:05:26.707Z,18.28
2023-05-06T10:07:57.530Z,18.41
2023-05-06T10:10:28.238Z,18.21
2023-05-06T10:12:56.737Z,17.27
2023-05-06T10:15:26.482Z,16.26
2023-05-06T10:17:54.843Z,15.67
2023-05-06T10:20:24.716Z,16.18
2023-05-06T10:23:49.413Z,16.76
2023-05-06T10:26:20.093Z,17.09
2023-05-06T10:28:50.698Z,17.24
2023-05-06T10:31:17.691Z,17.37
2023-05-06T10:33:51.998Z,17.40
2023-05-06T10:36:23.124Z,17.38
2023-05-06T10:39:00.804Z,17.30
2023-05-06T10:41:29.365Z,17.33
2023-05-06T10:43:57.585Z,17.36
2023-05-06T10:46:27.272Z,17.29
2023-05-06T10:49:06.944Z,17.18
2023-05-06T10:51:43.594Z,17.13
2023-05-06T10:54:31.165Z,17.16
2023-05-06T10:56:59.244Z,17.27
2023-05-06T10:59:30.121Z,17.34
2023-05-06T11:02:08.062Z,17.39
2023-05-06T11:04:36.014Z,17.28
2023-05-06T11:07:14.460Z,17.25
2023-05-06T11:09:58.304Z,17.16
2023-05-06T11:12:52.816Z,17.09
2023-05-06T11:15:40.682Z,17.01
2023-05-06T11:18:28.181Z,16.97
2023-05-06T11:21:01.649Z,16.93
2023-05-06T11:23:49.978Z,17.00
2023-05-06T11:26:17.340Z,17.16
2023-05-06T11:28:47.289Z,17.28
2023-05-06T11:31:15.935Z,17.33
2023-05-06T11:33:48.578Z,17.24
2023-05-06T11:36:17.972Z,17.14
2023-05-06T11:38:51.686Z,17.15
2023-05-06T11:41:19.750Z,17.19
2023-05-06T11:43:50.106Z,17.36
2023-05-06T11:46:19.318Z,17.54
2023-05-06T11:48:47.377Z,17.70
2023-05-06T11:51:14.618Z,17.81
2023-05-06T11:53:41.727Z,18.02
2023-05-06T11:56:09.156Z,18.18
2023-05-06T11:58:36.100Z,18.34
2023-05-06T12:01:05.029Z,18.50
2023-05-06T12:03:33.763Z,18.71
2023-05-06T12:06:01.978Z,18.83
2023-05-06T12:08:32.549Z,18.89
2023-05-06T12:11:06.999Z,18.97
2023-05-06T12:13:37.173Z,19.02
2023-05-06T12:16:06.231Z,19.08
2023-05-06T12:18:34.205Z,19.14
2023-05-06T12:21:04.567Z,19.27
2023-05-06T12:23:31.932Z,19.38
2023-05-06T12:26:06.613Z,19.47
2023-05-06T12:28:36.308Z,19.61
2023-05-06T12:31:23.675Z,19.80
2023-05-06T12:33:51.022Z,20.01
2023-05-06T12:36:19.674Z,20.19
2023-05-06T12:38:58.219Z,20.42
2023-05-06T12:41:36.783Z,20.65
2023-05-06T12:44:04.870Z,20.55
2023-05-06T12:46:31.790Z,19.64
2023-05-06T12:49:03.051Z,18.71
2023-05-06T12:51:31.217Z,18.08
2023-05-06T12:53:58.484Z,17.91
2023-05-06T12:56:25.437Z,18.76
2023-05-06T12:58:59.508Z,19.64
2023-05-06T13:01:26.486Z,20.21
2023-05-06T13:03:57.337Z,20.61
2023-05-06T13:06:24.433Z,20.90
2023-05-06T13:08:51.597Z,21.12
2023-05-06T13:11:18.725Z,21.32
2023-05-06T13:13:45.585Z,21.46
2023-05-06T13:16:12.619Z,21.57
2023-05-06T13:18:39.508Z,21.68
2023-05-06T13:21:06.711Z,21.58
2023-05-06T13:23:35.371Z,20.61
2023-05-06T13:26:06.131Z,19.63
2023-05-06T13:28:34.210Z,18.90
2023-05-06T13:31:01.217Z,18.72
2023-05-06T13:33:28.067Z,19.74
2023-05-06T13:35:54.968Z,20.72
2023-05-06T13:38:22.218Z,21.35
2023-05-06T13:40:51.763Z,21.77
2023-05-06T13:43:25.017Z,22.08
2023-05-06T13:45:55.094Z,22.05
2023-05-06T13:48:21.909Z,21.13
2023-05-06T13:50:48.871Z,20.23
2023-05-06T13:53:16.144Z,19.63
2023-05-06T13:55:43.871Z,19.51
2023-05-06T13:58:11.393Z,20.57
2023-05-06T14:00:38.871Z,21.58
2023-05-06T14:03:06.209Z,22.27
2023-05-06T14:05:33.263Z,22.49
2023-05-06T14:08:00.187Z,21.76
2023-05-06T14:10:27.118Z,20.91
2023-05-06T14:12:54.119Z,20.21
2023-05-06T14:15:21.105Z,19.68
2023-05-06T14:17:48.191Z,19.22
2023-05-06T14:20:15.106Z,18.87
2023-05-06T14:22:42.143Z,18.90
2023-05-06T14:25:10.428Z,20.02
2023-05-06T14:27:37.769Z,21.08
2023-05-06T14:30:08.547Z,21.72
2023-05-06T14:32:36.667Z,21.89
2023-05-06T14:35:03.746Z,21.07
2023-05-06T14:37:30.649Z,20.13
2023-05-06T14:39:58.321Z,19.39
2023-05-06T14:42:25.271Z,18.79
2023-05-06T14:44:52.101Z,18.32
2023-05-06T14:47:19.320Z,18.19
2023-05-06T14:49:46.255Z,19.16
2023-05-06T14:52:13.162Z,20.13
2023-05-06T14:54:42.927Z,20.79
2023-05-06T14:57:10.807Z,21.01
2023-05-06T14:59:38.576Z,20.23
2023-05-06T15:02:09.320Z,19.38
2023-05-06T15:04:36.992Z,18.75
2023-05-06T15:07:04.475Z,18.29
2023-05-06T15:09:31.549Z,17.96
2023-05-06T15:11:58.620Z,17.68
2023-05-06T15:14:25.649Z,17.46
2023-05-06T15:16:58.798Z,17.56
2023-05-06T15:19:25.843Z,18.79
2023-05-06T15:21:52.743Z,19.94
2023-05-06T15:24:19.671Z,20.68
2023-05-06T15:26:46.738Z,21.16
2023-05-06T15:29:13.710Z,21.23
2023-05-06T15:31:41.418Z,20.39
2023-05-06T15:34:10.796Z,19.52
2023-05-06T15:36:38.716Z,18.82
2023-05-06T15:39:05.621Z,18.29
2023-05-06T15:41:34.372Z,17.89
2023-05-06T15:44:03.378Z,17.58
2023-05-06T15:46:31.661Z,17.31
2023-05-06T15:49:21.081Z,17.10
2023-05-06T15:51:45.762Z,17.26
2023-05-06T15:54:13.398Z,18.47
2023-05-06T15:56:41.682Z,19.54
2023-05-06T15:59:08.959Z,20.22
2023-05-06T16:02:11.972Z,20.48
2023-05-06T16:04:24.552Z,19.68
2023-05-06T16:06:51.656Z,18.89
2023-05-06T16:09:18.623Z,18.33
2023-05-06T16:11:45.397Z,17.88
2023-05-06T16:14:12.725Z,17.50
2023-05-06T16:16:39.629Z,17.28
2023-05-06T16:19:07.333Z,18.13
2023-05-06T16:21:34.779Z,19.30
2023-05-06T16:24:02.728Z,20.07
2023-05-06T16:26:29.769Z,20.32
2023-05-06T16:28:56.707Z,19.56
2023-05-06T16:31:23.699Z,18.67
2023-05-06T16:33:51.250Z,17.94
2023-05-06T16:36:18.068Z,17.37
2023-05-06T16:38:44.953Z,16.96
2023-05-06T16:41:11.903Z,16.87
2023-05-06T16:43:38.789Z,17.86
2023-05-06T16:46:06.564Z,18.88
2023-05-06T16:48:33.760Z,19.54
2023-05-06T16:51:01.009Z,19.72
2023-05-06T16:53:29.993Z,18.90
2023-05-06T16:55:57.004Z,18.01
2023-05-06T16:58:24.364Z,17.35
2023-05-06T17:00:54.630Z,16.85
2023-05-06T17:03:21.846Z,16.42
2023-05-06T17:05:49.032Z,16.36
2023-05-06T17:08:16.398Z,17.31
2023-05-06T17:10:43.865Z,18.21
2023-05-06T17:13:11.403Z,18.82
2023-05-06T17:15:38.660Z,19.27
2023-05-06T17:18:06.082Z,19.61
2023-05-06T17:20:38.022Z,19.58
2023-05-06T17:23:15.314Z,18.56
2023-05-06T17:25:42.286Z,17.61
2023-05-06T17:28:09.304Z,16.90
2023-05-06T17:30:36.600Z,16.35
2023-05-06T17:33:03.486Z,15.91
2023-05-06T17:35:31.227Z,15.76
2023-05-06T17:37:58.519Z,16.56
2023-05-06T17:40:25.402Z,17.49
2023-05-06T17:42:52.416Z,18.25
2023-05-06T17:45:19.540Z,18.77
2023-05-06T17:47:46.861Z,19.13
2023-05-06T17:50:14.040Z,19.39
2023-05-06T17:52:41.170Z,19.27
2023-05-06T17:55:16.302Z,18.29
2023-05-06T17:57:44.282Z,17.23
2023-05-06T18:00:11.964Z,16.45
2023-05-06T18:02:39.394Z,15.87
2023-05-06T18:05:07.149Z,15.39
2023-05-06T18:07:36.426Z,14.99
2023-05-06T18:10:03.687Z,14.89
2023-05-06T18:12:31.361Z,15.90
2023-05-06T18:14:58.696Z,16.94
2023-05-06T18:17:26.025Z,17.68
2023-05-06T18:19:53.097Z,18.21
2023-05-06T18:22:19.881Z,18.59
2023-05-06T18:24:47.326Z,18.64
2023-05-06T18:27:14.441Z,17.76
2023-05-06T18:29:41.640Z,16.79
2023-05-06T18:32:08.707Z,16.05
2023-05-06T18:34:35.860Z,15.47
2023-05-06T18:37:02.817Z,15.00
2023-05-06T18:39:29.674Z,14.87
2023-05-06T18:41:56.547Z,15.87
2023-05-06T18:44:23.795Z,16.90
2023-05-06T18:46:51.321Z,17.57
2023-05-06T18:49:18.180Z,18.01
2023-05-06T18:51:45.291Z,18.40
2023-05-06T18:54:13.972Z,18.72
2023-05-06T18:59:10.125Z,17.37
2023-05-06T19:01:37.182Z,16.34
2023-05-06T19:04:05.201Z,15.55
2023-05-06T19:06:32.997Z,14.96
2023-05-06T19:09:00.411Z,14.74
2023-05-06T19:11:27.427Z,15.73
2023-05-06T19:13:54.552Z,16.82
2023-05-06T19:16:21.599Z,17.52
2023-05-06T19:18:48.503Z,18.01
2023-05-06T19:21:16.296Z,18.31
2023-05-06T19:23:43.200Z,18.57
2023-05-06T19:26:13.359Z,18.50
2023-05-06T19:28:40.927Z,17.48
2023-05-06T19:31:12.397Z,16.39
2023-05-06T19:33:39.936Z,15.56
2023-05-06T19:36:07.418Z,14.95
2023-05-06T19:38:34.719Z,14.47
2023-05-06T19:41:02.168Z,14.33
2023-05-06T19:43:29.643Z,15.35
2023-05-06T19:45:57.142Z,16.36
2023-05-06T19:48:24.440Z,16.96
2023-05-06T19:50:54.138Z,17.37
2023-05-06T19:53:23.318Z,17.68
2023-05-06T19:55:50.441Z,17.90
2023-05-06T19:58:19.179Z,18.07
2023-05-06T20:00:46.139Z,17.98
2023-05-06T20:03:13.396Z,17.05
2023-05-06T20:05:40.980Z,16.08
2023-05-06T20:08:11.550Z,15.30
2023-05-06T20:10:38.949Z,14.73
2023-05-06T20:13:06.840Z,14.28
2023-05-06T20:15:36.058Z,14.19
2023-05-06T20:18:03.248Z,15.19
2023-05-06T20:20:40.127Z,16.17
2023-05-06T20:23:07.014Z,16.89
2023-05-06T20:25:37.094Z,17.40
2023-05-06T20:28:06.833Z,17.74
2023-05-06T20:30:34.677Z,18.00
2023-05-06T20:33:02.303Z,18.20
2023-05-06T20:35:29.307Z,18.11
2023-05-06T20:37:56.136Z,17.19
2023-05-06T20:40:23.130Z,16.24
2023-05-06T20:42:50.098Z,15.50
2023-05-06T20:45:17.107Z,14.91
2023-05-06T20:47:45.721Z,14.68
2023-05-06T20:50:17.497Z,15.62
2023-05-06T20:52:48.640Z,16.59
2023-05-06T20:55:16.224Z,17.25
2023-05-06T20:57:44.784Z,17.68
2023-05-06T21:00:14.951Z,17.98
2023-05-06T21:02:42.428Z,18.22
2023-05-06T21:05:10.522Z,18.14
2023-05-06T21:07:38.074Z,17.16
2023-05-06T21:10:06.382Z,16.13
2023-05-06T21:12:34.521Z,15.36
2023-05-06T21:15:02.227Z,14.72
2023-05-06T21:17:29.385Z,14.17
2023-05-06T21:19:56.497Z,14.03
2023-05-06T21:22:24.300Z,15.05
2023-05-06T21:24:51.497Z,16.14
2023-05-06T21:27:18.641Z,16.92
2023-05-06T21:29:45.735Z,17.38
2023-05-06T21:32:13.029Z,17.66
2023-05-06T21:34:40.141Z,17.64
2023-05-06T21:37:07.003Z,16.68
2023-05-06T21:39:33.930Z,15.68
2023-05-06T21:42:00.898Z,14.91
2023-05-06T21:44:27.812Z,14.31
2023-05-06T21:46:57.930Z,13.84
2023-05-06T21:49:25.527Z,13.70
2023-05-06T21:51:52.396Z,14.61
2023-05-06T21:54:19.184Z,15.55
2023-05-06T21:56:46.056Z,16.27
2023-05-06T21:59:13.548Z,16.77
2023-05-06T22:01:40.549Z,17.15
2023-05-06T22:04:11.854Z,17.45
2023-05-06T22:06:39.964Z,17.51
2023-05-06T22:09:09.848Z,16.63
2023-05-06T22:11:39.838Z,15.70
2023-05-06T22:14:07.200Z,15.00
2023-05-06T22:16:35.879Z,14.48
2023-05-06T22:19:04.502Z,14.05
2023-05-06T22:21:32.855Z,13.94
2023-05-06T22:24:00.004Z,14.82
2023-05-06T22:26:30.020Z,15.68
2023-05-06T22:28:57.150Z,16.28
2023-05-06T22:31:25.249Z,16.73
2023-05-06T22:33:55.799Z,17.07
2023-05-06T22:36:22.809Z,17.37
2023-05-06T22:38:50.132Z,17.61
2023-05-06T22:41:18.448Z,17.81
2023-05-06T22:43:45.791Z,17.71
2023-05-06T22:46:12.994Z,16.70
2023-05-06T22:48:39.959Z,15.64
2023-05-06T22:51:06.998Z,14.82
2023-05-06T22:53:33.838Z,14.19
2023-05-06T22:56:00.794Z,14.00
2023-05-06T22:58:27.891Z,14.94
2023-05-06T23:00:55.202Z,15.86
2023-05-06T23:03:23.132Z,16.42
2023-05-06T23:05:50.504Z,16.78
2023-05-06T23:08:17.353Z,17.06
2023-05-06T23:10:44.623Z,17.24
2023-05-06T23:13:12.662Z,17.40
2023-05-06T23:15:40.423Z,17.53
2023-05-06T23:18:07.379Z,17.63
2023-05-06T23:20:34.915Z,17.50
2023-05-06T23:23:01.850Z,16.52
2023-05-06T23:25:28.961Z,15.46
2023-05-06T23:27:55.863Z,14.58
2023-05-06T23:30:23.031Z,13.91
2023-05-06T23:32:50.273Z,13.72
2023-05-06T23:35:17.437Z,14.76
2023-05-06T23:37:44.354Z,15.72
2023-05-06T23:40:13.825Z,16.35
2023-05-06T23:42:41.350Z,16.82
2023-05-06T23:45:09.598Z,17.07
2023-05-06T23:47:36.911Z,17.25
2023-05-06T23:50:04.485Z,17.36
2023-05-06T23:52:31.756Z,17.20
2023-05-06T23:54:58.676Z,16.17
2023-05-06T23:57:25.827Z,15.09
2023-05-06T23:59:52.789Z,14.26
